Time;durP1;ratioP1;P1;durP2;ratioP2;P2;SDS_P1;SDS_P2;PMS_P1;PMS_P2;Temp;Humidity;BMP_temperature;BMP_pressure;BME280_temperature;BME280_humidity;BME280_pressure;Samples;Min_cycle;Max_cycle;Signal;HPM_P1;HPM_P2
2024/01/30 00:01:26;;;;;;;26.70;18.08;;;6.10;99.90;;;;;;5074509;28;20044;-48
2024/01/30 00:03:51;;;;;;;26.15;17.85;;;4.90;99.90;;;;;;5074483;28;20397;-46
2024/01/30 00:06:23;;;;;;;26.27;17.38;;;4.90;99.90;;;;;;5074125;28;20499;-46
2024/01/30 00:08:49;;;;;;;24.30;17.83;;;5.60;99.90;;;;;;5074281;28;20072;-46
2024/01/30 00:11:16;;;;;;;25.20;18.13;;;6.00;99.90;;;;;;5073855;28;20041;-46
2024/01/30 00:13:41;;;;;;;29.00;19.33;;;5.80;99.90;;;;;;5073917;28;20051;-47
2024/01/30 00:16:09;;;;;;;29.85;19.17;;;5.00;99.90;;;;;;5072795;28;20040;-46
2024/01/30 00:18:35;;;;;;;26.92;18.65;;;4.90;99.90;;;;;;5073632;28;20477;-46
2024/01/30 00:21:01;;;;;;;26.52;18.17;;;5.30;99.90;;;;;;5072737;28;20055;-46
2024/01/30 00:23:26;;;;;;;28.50;17.83;;;4.70;99.90;;;;;;5073676;28;20037;-51
2024/01/30 00:25:52;;;;;;;26.85;18.42;;;4.70;99.90;;;;;;5073526;28;20123;-49
2024/01/30 00:28:18;;;;;;;28.00;18.30;;;5.80;99.90;;;;;;5073120;28;20040;-48
2024/01/30 00:30:44;;;;;;;27.20;18.88;;;4.80;99.90;;;;;;5073831;28;20051;-48
2024/01/30 00:33:09;;;;;;;28.70;19.08;;;5.90;99.90;;;;;;5073545;28;20044;-46
2024/01/30 00:35:35;;;;;;;26.00;18.30;;;5.60;99.90;;;;;;5073542;28;20037;-46
2024/01/30 00:38:01;;;;;;;28.30;18.90;;;5.70;99.90;;;;;;5072484;28;20040;-46
2024/01/30 00:40:26;;;;;;;28.27;19.45;;;4.60;99.90;;;;;;5073388;28;20373;-47
2024/01/30 00:42:52;;;;;;;28.13;19.42;;;4.70;99.90;;;;;;5073629;28;20506;-46
2024/01/30 00:45:18;;;;;;;30.95;20.17;;;5.80;99.90;;;;;;5073371;28;20044;-46
2024/01/30 00:47:44;;;;;;;27.25;19.30;;;5.30;99.90;;;;;;5073541;28;20048;-51
2024/01/30 00:50:11;;;;;;;28.75;19.88;;;5.00;99.90;;;;;;5073404;28;20105;-46
2024/01/30 00:52:36;;;;;;;26.90;18.67;;;5.30;99.90;;;;;;5073233;28;20043;-50
2024/01/30 00:55:03;;;;;;;27.83;18.77;;;4.70;99.90;;;;;;5071737;28;20049;-49
2024/01/30 00:57:28;;;;;;;25.55;18.23;;;4.90;99.90;;;;;;5072949;28;20136;-50
2024/01/30 00:59:54;;;;;;;26.75;18.15;;;4.90;99.90;;;;;;5072092;28;20440;-49
2024/01/30 01:02:20;;;;;;;26.98;19.45;;;5.10;99.90;;;;;;5073005;28;20111;-47
2024/01/30 01:04:46;;;;;;;27.00;19.40;;;5.00;99.90;;;;;;5071564;28;20071;-50
2024/01/30 01:07:12;;;;;;;26.23;18.13;;;4.60;99.90;;;;;;5072823;28;20036;-51
2024/01/30 01:09:37;;;;;;;28.05;18.98;;;4.50;99.90;;;;;;5072979;28;20052;-50
2024/01/30 01:12:04;;;;;;;28.08;19.35;;;4.50;99.90;;;;;;5072616;28;20052;-49
2024/01/30 01:14:30;;;;;;;28.33;19.35;;;4.60;99.90;;;;;;5072927;28;20041;-46
2024/01/30 01:16:56;;;;;;;29.58;19.48;;;5.40;99.90;;;;;;5072981;28;20037;-51
2024/01/30 01:19:22;;;;;;;26.73;18.92;;;5.70;99.90;;;;;;5072764;28;20558;-49
2024/01/30 01:21:47;;;;;;;30.80;19.98;;;4.60;99.90;;;;;;5072531;28;20071;-50
2024/01/30 01:24:13;;;;;;;30.02;19.40;;;5.60;99.90;;;;;;5072812;28;20072;-49
2024/01/30 01:26:39;;;;;;;29.65;20.50;;;4.40;99.90;;;;;;5072707;28;20037;-47
2024/01/30 01:29:09;;;;;;;29.17;19.45;;;5.50;99.90;;;;;;5072378;28;20044;-47
2024/01/30 01:31:45;;;;;;;30.45;20.42;;;4.40;99.90;;;;;;5072630;28;20085;-47
2024/01/30 01:34:11;;;;;;;27.90;19.25;;;5.40;99.90;;;;;;5071260;28;20060;-48
2024/01/30 01:36:37;;;;;;;28.52;20.48;;;5.60;99.90;;;;;;5072204;28;20480;-49
2024/01/30 01:39:03;;;;;;;28.40;19.98;;;5.40;99.90;;;;;;5071567;28;20086;-50
2024/01/30 01:41:32;;;;;;;30.98;20.98;;;5.40;99.90;;;;;;5071140;28;20064;-46
2024/01/30 01:43:59;;;;;;;29.67;20.50;;;4.30;99.90;;;;;;5072515;28;20036;-46
2024/01/30 01:46:27;;;;;;;31.50;20.98;;;4.40;99.90;;;;;;5072212;28;20433;-50
2024/01/30 01:48:55;;;;;;;30.80;19.40;;;5.50;99.90;;;;;;5072117;28;20036;-48
2024/01/30 01:51:22;;;;;;;28.80;19.80;;;5.10;99.90;;;;;;5072029;28;20106;-50
2024/01/30 01:53:47;;;;;;;28.88;21.27;;;4.30;99.90;;;;;;5070835;28;20044;-49
2024/01/30 01:56:14;;;;;;;30.77;20.83;;;4.80;99.90;;;;;;5071864;28;20396;-47
2024/01/30 01:58:41;;;;;;;27.92;20.70;;;5.50;99.90;;;;;;5072231;28;20392;-46
2024/01/30 02:01:08;;;;;;;31.40;20.92;;;4.40;99.90;;;;;;5072332;28;20037;-49
2024/01/30 02:03:34;;;;;;;30.45;20.33;;;4.20;99.90;;;;;;5072125;28;20105;-47
2024/01/30 02:06:02;;;;;;;31.67;19.73;;;5.60;99.90;;;;;;5072046;28;20131;-49
2024/01/30 02:08:28;;;;;;;28.45;19.77;;;5.50;99.90;;;;;;5070733;28;20063;-45
2024/01/30 02:10:54;;;;;;;31.63;19.67;;;5.00;99.90;;;;;;5071935;28;20614;-50
2024/01/30 02:13:20;;;;;;;30.40;20.05;;;4.30;99.90;;;;;;5070830;28;20139;-49
2024/01/30 02:15:50;;;;;;;29.75;20.30;;;4.90;99.90;;;;;;5072116;28;20040;-48
2024/01/30 02:18:16;;;;;;;30.20;20.38;;;5.60;99.90;;;;;;5071854;28;20072;-46
2024/01/30 02:20:43;;;;;;;29.48;20.48;;;4.30;99.90;;;;;;5070574;28;20562;-46
2024/01/30 02:23:10;;;;;;;30.55;20.85;;;4.60;99.90;;;;;;5072136;28;20154;-47
2024/01/30 02:25:45;;;;;;;29.10;20.10;;;5.20;99.90;;;;;;5071972;28;20557;-47
2024/01/30 02:28:12;;;;;;;30.10;22.23;;;4.70;99.90;;;;;;5071966;28;20041;-46
2024/01/30 02:30:45;;;;;;;31.58;21.55;;;5.70;99.90;;;;;;5071894;28;20037;-47
2024/01/30 02:33:11;;;;;;;31.13;21.05;;;5.60;99.90;;;;;;5071897;28;20072;-50
2024/01/30 02:35:37;;;;;;;29.65;21.23;;;5.30;99.90;;;;;;5071868;28;20037;-47
2024/01/30 02:38:03;;;;;;;32.13;21.25;;;4.80;99.90;;;;;;5071899;28;20114;-46
2024/01/30 02:40:29;;;;;;;29.92;20.65;;;5.90;99.90;;;;;;5071723;28;20059;-46
2024/01/30 02:42:54;;;;;;;28.52;20.83;;;4.90;99.90;;;;;;5071584;28;20094;-48
2024/01/30 02:45:20;;;;;;;31.55;20.60;;;5.90;99.90;;;;;;5071634;28;20046;-47
2024/01/30 02:47:46;;;;;;;32.30;21.95;;;5.60;99.90;;;;;;5071787;28;20076;-49
2024/01/30 02:50:12;;;;;;;30.23;21.48;;;5.20;99.90;;;;;;5073111;28;20048;-47
2024/01/30 02:52:37;;;;;;;30.90;20.83;;;4.70;99.90;;;;;;5075342;28;20045;-45
2024/01/30 02:55:03;;;;;;;35.38;23.25;;;6.00;99.90;;;;;;5075592;28;20093;-46
2024/01/30 02:57:29;;;;;;;32.15;21.73;;;6.00;99.90;;;;;;5075285;28;20378;-47
2024/01/30 02:59:55;;;;;;;32.70;22.20;;;5.20;99.90;;;;;;5074286;28;20032;-47
2024/01/30 03:02:20;;;;;;;30.65;20.45;;;6.10;99.90;;;;;;5075453;28;20044;-47
2024/01/30 03:04:46;;;;;;;28.08;20.17;;;4.70;99.90;;;;;;5075085;28;20055;-47
2024/01/30 03:07:12;;;;;;;31.95;20.45;;;4.70;99.90;;;;;;5075232;28;20130;-46
2024/01/30 03:09:38;;;;;;;31.05;22.98;;;5.60;99.90;;;;;;5075067;28;20074;-48
2024/01/30 03:12:04;;;;;;;36.25;22.63;;;5.70;99.90;;;;;;5074017;28;20048;-45
2024/01/30 03:14:31;;;;;;;32.42;21.13;;;6.00;99.90;;;;;;5073813;28;20075;-48
2024/01/30 03:16:57;;;;;;;34.25;21.88;;;4.90;99.90;;;;;;5074651;28;20036;-50
2024/01/30 03:19:23;;;;;;;31.17;22.50;;;4.70;99.90;;;;;;5074974;28;20055;-50
2024/01/30 03:21:49;;;;;;;30.58;22.27;;;6.10;99.90;;;;;;5075184;28;20036;-47
2024/01/30 03:24:15;;;;;;;29.77;21.05;;;4.90;99.90;;;;;;5075185;28;20045;-48
2024/01/30 03:26:40;;;;;;;29.52;20.90;;;6.00;99.90;;;;;;5074784;28;20078;-47
2024/01/30 03:29:06;;;;;;;32.85;21.30;;;4.70;99.90;;;;;;5074715;28;20040;-50
2024/01/30 03:31:32;;;;;;;30.73;20.88;;;4.70;99.90;;;;;;5074816;28;20120;-47
2024/01/30 03:33:58;;;;;;;29.88;21.88;;;5.00;99.90;;;;;;5074905;28;20040;-50
2024/01/30 03:36:23;;;;;;;36.03;21.88;;;6.00;99.90;;;;;;5074896;28;20052;-50
2024/01/30 03:38:49;;;;;;;30.88;21.95;;;6.10;99.90;;;;;;5074572;28;20445;-46
2024/01/30 03:41:15;;;;;;;30.92;20.35;;;4.90;99.90;;;;;;5074766;28;20033;-48
2024/01/30 03:43:40;;;;;;;29.48;20.05;;;6.30;99.90;;;;;;5074543;28;20052;-48
2024/01/30 03:46:06;;;;;;;28.02;20.45;;;4.60;99.90;;;;;;5074437;28;20048;-46
2024/01/30 03:48:32;;;;;;;34.15;21.42;;;6.00;99.90;;;;;;5074290;28;20044;-48
2024/01/30 03:50:58;;;;;;;32.35;20.90;;;4.60;99.90;;;;;;5074608;28;20043;-48
2024/01/30 03:53:23;;;;;;;30.83;20.42;;;6.20;99.90;;;;;;5074464;28;20047;-46
2024/01/30 03:55:49;;;;;;;32.45;22.48;;;6.10;99.90;;;;;;5072853;28;20040;-49
2024/01/30 03:58:15;;;;;;;29.25;21.17;;;4.70;99.90;;;;;;5074179;28;20063;-46
2024/01/30 04:00:41;;;;;;;30.10;21.30;;;6.10;99.90;;;;;;5072934;28;20048;-45
2024/01/30 04:03:06;;;;;;;30.88;19.90;;;4.70;99.90;;;;;;5073433;28;20036;-46
2024/01/30 04:05:32;;;;;;;30.88;20.80;;;4.60;99.90;;;;;;5074225;28;20138;-46
2024/01/30 04:07:58;;;;;;;32.90;20.92;;;6.10;99.90;;;;;;5074124;28;20072;-47
2024/01/30 04:10:24;;;;;;;29.83;21.20;;;5.50;99.90;;;;;;5073918;28;20463;-45
2024/01/30 04:12:51;;;;;;;29.52;19.85;;;4.60;99.90;;;;;;5072734;28;20036;-47
2024/01/30 04:15:17;;;;;;;30.42;20.52;;;6.30;99.90;;;;;;5074100;28;20037;-46
2024/01/30 04:17:43;;;;;;;31.50;20.38;;;5.60;99.90;;;;;;5073821;28;20037;-48
2024/01/30 04:20:16;;;;;;;33.25;20.52;;;4.80;99.90;;;;;;5074095;28;20040;-46
2024/01/30 04:22:46;;;;;;;29.85;21.58;;;4.90;99.90;;;;;;5073722;28;20119;-46
2024/01/30 04:25:14;;;;;;;29.83;19.90;;;6.30;99.90;;;;;;5073961;28;20040;-47
2024/01/30 04:27:40;;;;;;;28.92;20.40;;;4.80;99.90;;;;;;5072542;28;20089;-46
2024/01/30 04:30:06;;;;;;;29.40;20.25;;;5.30;99.90;;;;;;5073857;28;20418;-48
2024/01/30 04:32:32;;;;;;;29.15;20.02;;;4.90;99.90;;;;;;5073583;28;20101;-46
2024/01/30 04:34:58;;;;;;;29.65;19.27;;;6.20;99.90;;;;;;5073427;28;20131;-47
2024/01/30 04:37:24;;;;;;;30.65;19.10;;;5.40;99.90;;;;;;5073515;28;20123;-47
2024/01/30 04:39:51;;;;;;;28.23;20.30;;;6.40;99.90;;;;;;5073355;28;20047;-47
2024/01/30 04:42:17;;;;;;;30.77;19.35;;;5.10;99.90;;;;;;5073274;28;20094;-50
2024/01/30 04:44:43;;;;;;;29.05;19.67;;;5.10;99.90;;;;;;5073533;28;20040;-48
2024/01/30 04:47:10;;;;;;;26.67;19.15;;;6.60;99.90;;;;;;5073175;28;20044;-47
2024/01/30 04:49:36;;;;;;;29.25;19.92;;;5.40;99.90;;;;;;5073423;28;20422;-48
2024/01/30 04:52:02;;;;;;;30.33;18.92;;;6.80;99.90;;;;;;5072226;28;20055;-49
2024/01/30 04:54:28;;;;;;;27.88;19.65;;;6.60;99.90;;;;;;5073113;28;20036;-46
2024/01/30 04:56:53;;;;;;;30.38;20.40;;;5.30;99.90;;;;;;5072970;28;20136;-46
2024/01/30 04:59:19;;;;;;;28.23;19.48;;;5.40;99.90;;;;;;5073073;28;20084;-47
2024/01/30 05:01:45;;;;;;;25.80;17.92;;;5.30;99.90;;;;;;5073029;28;20044;-47
2024/01/30 05:04:11;;;;;;;26.33;17.50;;;5.40;99.90;;;;;;5073125;28;20060;-47
2024/01/30 05:06:36;;;;;;;31.80;19.45;;;6.40;99.90;;;;;;5072810;28;20044;-46
2024/01/30 05:09:04;;;;;;;30.08;19.98;;;6.20;99.90;;;;;;5072873;28;20036;-47
2024/01/30 05:11:30;;;;;;;30.20;18.67;;;5.40;99.90;;;;;;5073024;28;20040;-46
2024/01/30 05:13:55;;;;;;;26.50;18.58;;;5.40;99.90;;;;;;5072635;28;20047;-49
2024/01/30 05:16:21;;;;;;;26.70;18.73;;;7.00;99.90;;;;;;5071214;28;20044;-46
2024/01/30 05:18:47;;;;;;;26.42;17.65;;;5.80;99.90;;;;;;5072970;28;20112;-46
2024/01/30 05:21:13;;;;;;;26.40;18.38;;;5.60;99.90;;;;;;5072729;28;20032;-46
2024/01/30 05:23:38;;;;;;;25.55;18.02;;;5.90;99.90;;;;;;5072604;28;20044;-47
2024/01/30 05:26:04;;;;;;;26.10;18.10;;;5.50;99.90;;;;;;5072835;28;20369;-47
2024/01/30 05:28:30;;;;;;;25.10;17.42;;;5.40;99.90;;;;;;5072772;28;20086;-47
2024/01/30 05:30:56;;;;;;;28.45;18.48;;;5.60;99.90;;;;;;5072674;28;20048;-47
2024/01/30 05:33:22;;;;;;;24.20;16.95;;;5.40;99.90;;;;;;5072643;28;20040;-47
2024/01/30 05:35:48;;;;;;;29.15;17.25;;;7.00;99.90;;;;;;5072320;28;20046;-47
2024/01/30 05:38:15;;;;;;;25.70;18.67;;;5.90;99.90;;;;;;5072217;28;20052;-45
2024/01/30 05:40:41;;;;;;;26.85;16.45;;;5.40;99.90;;;;;;5072277;28;20127;-50
2024/01/30 05:43:07;;;;;;;24.98;16.88;;;6.20;99.90;;;;;;5072229;28;20103;-46
2024/01/30 05:45:35;;;;;;;26.45;17.98;;;6.90;99.90;;;;;;5072510;28;20067;-49
2024/01/30 05:48:01;;;;;;;26.38;17.38;;;6.30;99.90;;;;;;5072190;28;20072;-50
2024/01/30 05:50:26;;;;;;;27.00;18.50;;;5.70;99.90;;;;;;5072257;28;20075;-47
2024/01/30 05:52:53;;;;;;;24.92;18.05;;;6.10;99.90;;;;;;5072152;28;20093;-50
2024/01/30 05:55:18;;;;;;;25.30;17.27;;;7.00;99.90;;;;;;5071851;28;20440;-50
2024/01/30 05:57:44;;;;;;;23.80;15.95;;;7.20;99.90;;;;;;5071882;28;20052;-50
2024/01/30 06:00:10;;;;;;;25.30;17.58;;;5.80;99.90;;;;;;5072353;28;20071;-46
2024/01/30 06:02:36;;;;;;;23.80;17.17;;;7.30;99.90;;;;;;5072191;28;20040;-49
2024/01/30 06:05:02;;;;;;;29.50;16.48;;;7.00;99.90;;;;;;5070787;28;20036;-50
2024/01/30 06:07:28;;;;;;;26.17;16.75;;;5.60;99.90;;;;;;5071820;28;20173;-46
2024/01/30 06:09:54;;;;;;;26.73;18.08;;;6.50;99.90;;;;;;5071875;28;20044;-47
2024/01/30 06:12:19;;;;;;;25.55;17.85;;;7.10;99.90;;;;;;5071917;28;20025;-50
2024/01/30 06:14:45;;;;;;;26.42;17.40;;;5.70;99.90;;;;;;5071837;28;20175;-49
2024/01/30 06:17:11;;;;;;;26.60;17.25;;;7.50;99.90;;;;;;5071907;28;20086;-46
2024/01/30 06:19:41;;;;;;;26.70;17.40;;;7.50;99.90;;;;;;5071981;28;20129;-45
2024/01/30 06:22:07;;;;;;;26.65;16.95;;;6.60;99.90;;;;;;5072159;28;20047;-49
2024/01/30 06:24:34;;;;;;;28.00;17.33;;;6.20;99.90;;;;;;5072496;28;20040;-47
2024/01/30 06:26:59;;;;;;;26.75;17.52;;;5.80;99.90;;;;;;5076195;28;20047;-47
2024/01/30 06:29:26;;;;;;;29.40;18.25;;;7.00;99.90;;;;;;5076007;28;20578;-45
2024/01/30 06:31:52;;;;;;;24.98;16.33;;;5.80;99.90;;;;;;5076221;28;20040;-46
2024/01/30 06:34:18;;;;;;;25.35;16.50;;;7.00;99.90;;;;;;5075863;28;20052;-47
2024/01/30 06:36:43;;;;;;;24.08;15.90;;;7.50;99.90;;;;;;5075904;28;20102;-47
2024/01/30 06:39:09;;;;;;;24.48;17.77;;;6.30;99.90;;;;;;5075934;28;20044;-47
2024/01/30 06:41:34;;;;;;;25.13;15.90;;;5.90;99.90;;;;;;5075558;28;20044;-50
2024/01/30 06:44:03;;;;;;;26.25;16.75;;;7.30;99.90;;;;;;5075628;28;20043;-49
2024/01/30 06:46:28;;;;;;;25.77;16.77;;;5.90;99.90;;;;;;5075503;28;20070;-49
2024/01/30 06:48:54;;;;;;;23.90;16.80;;;6.40;99.90;;;;;;5075826;28;20115;-47
2024/01/30 06:51:19;;;;;;;26.38;16.70;;;5.90;99.90;;;;;;5075468;28;20099;-47
2024/01/30 06:53:45;;;;;;;25.55;16.13;;;6.10;99.90;;;;;;5075723;28;20059;-48
2024/01/30 06:56:11;;;;;;;25.40;16.75;;;6.20;99.90;;;;;;5075193;28;20098;-47
2024/01/30 06:58:36;;;;;;;24.02;15.30;;;6.30;99.90;;;;;;5075233;28;20056;-45
2024/01/30 07:01:02;;;;;;;23.65;14.90;;;7.80;99.90;;;;;;5075247;28;20037;-48
2024/01/30 07:03:28;;;;;;;26.33;15.27;;;6.10;99.90;;;;;;5075330;28;20446;-47
2024/01/30 07:05:54;;;;;;;23.38;15.18;;;6.90;99.90;;;;;;5075384;28;20488;-46
2024/01/30 07:08:20;;;;;;;23.90;15.40;;;6.10;99.90;;;;;;5075025;28;20489;-51
2024/01/30 07:10:46;;;;;;;23.85;15.43;;;7.60;99.90;;;;;;5075080;28;20115;-46
2024/01/30 07:13:12;;;;;;;25.83;16.15;;;6.00;99.90;;;;;;5074621;28;20501;-46
2024/01/30 07:15:38;;;;;;;23.70;15.27;;;7.40;99.90;;;;;;5073729;28;20045;-49
2024/01/30 07:18:05;;;;;;;23.33;14.93;;;6.80;99.90;;;;;;5074878;28;20060;-45
2024/01/30 07:20:31;;;;;;;23.33;14.75;;;6.10;99.90;;;;;;5075088;28;20700;-45
2024/01/30 07:23:00;;;;;;;22.08;14.70;;;7.20;99.90;;;;;;5073310;28;20046;-46
2024/01/30 07:25:26;;;;;;;22.83;13.57;;;6.50;99.90;;;;;;5074841;28;20036;-51
2024/01/30 07:27:52;;;;;;;21.95;14.38;;;6.70;99.90;;;;;;5075015;28;20485;-46
2024/01/30 07:30:19;;;;;;;21.50;14.60;;;7.60;99.90;;;;;;5074554;28;20123;-48
2024/01/30 07:32:45;;;;;;;21.42;14.32;;;6.70;99.90;;;;;;5073472;28;20047;-46
2024/01/30 07:35:11;;;;;;;23.75;14.05;;;7.60;99.90;;;;;;5074615;28;20037;-48
2024/01/30 07:37:37;;;;;;;21.70;14.52;;;7.80;99.90;;;;;;5073216;28;20599;-45
2024/01/30 07:40:03;;;;;;;23.90;14.38;;;7.00;99.90;;;;;;5074621;28;20128;-47
2024/01/30 07:42:29;;;;;;;22.67;14.27;;;6.10;99.90;;;;;;5074565;28;20039;-48
2024/01/30 07:44:55;;;;;;;21.67;13.18;;;7.60;99.90;;;;;;5074394;28;20041;-47
2024/01/30 07:47:21;;;;;;;21.23;13.75;;;7.70;99.90;;;;;;5074274;28;20044;-47
2024/01/30 07:49:46;;;;;;;21.80;13.55;;;7.90;99.90;;;;;;5074569;28;20040;-49
2024/01/30 07:52:12;;;;;;;20.95;13.30;;;6.10;99.90;;;;;;5073764;28;20450;-46
2024/01/30 07:54:51;;;;;;;23.00;14.13;;;6.20;99.90;;;;;;5073117;28;20765;-49
2024/01/30 07:57:17;;;;;;;22.30;14.75;;;6.90;99.90;;;;;;5068384;28;20068;-48
2024/01/30 07:59:46;;;;;;;20.80;14.50;;;6.40;99.90;;;;;;5063914;28;20059;-48
2024/01/30 08:02:12;;;;;;;19.02;13.30;;;7.80;99.90;;;;;;5062395;28;20036;-50
2024/01/30 08:04:38;;;;;;;19.83;12.88;;;6.90;99.90;;;;;;5068936;28;20048;-47
2024/01/30 08:07:04;;;;;;;23.75;13.55;;;7.90;99.90;;;;;;5073619;28;20040;-50
2024/01/30 08:09:29;;;;;;;20.65;13.23;;;7.60;99.90;;;;;;5073307;28;20119;-48
2024/01/30 08:11:55;;;;;;;23.83;14.30;;;7.40;99.90;;;;;;5073015;28;20063;-46
2024/01/30 08:14:20;;;;;;;22.40;14.02;;;8.00;99.90;;;;;;5073101;28;20116;-48
2024/01/30 08:16:46;;;;;;;23.77;13.57;;;7.70;99.90;;;;;;5073066;28;20127;-47
2024/01/30 08:19:12;;;;;;;23.30;14.65;;;6.80;99.90;;;;;;5071787;28;20036;-48
2024/01/30 08:21:38;;;;;;;23.42;15.50;;;6.50;99.90;;;;;;5073201;28;20089;-45
2024/01/30 08:24:04;;;;;;;24.38;16.58;;;6.70;99.90;;;;;;5071427;28;20044;-46
2024/01/30 08:26:31;;;;;;;25.42;15.00;;;7.10;99.90;;;;;;5072951;28;20048;-48
2024/01/30 08:28:56;;;;;;;22.55;14.25;;;7.50;99.90;;;;;;5072886;28;20048;-46
2024/01/30 08:31:22;;;;;;;22.42;14.18;;;7.20;99.90;;;;;;5072729;28;20369;-45
2024/01/30 08:33:48;;;;;;;22.63;14.32;;;8.00;99.90;;;;;;5072865;28;20093;-46
2024/01/30 08:36:15;;;;;;;20.73;14.10;;;8.00;99.90;;;;;;5072700;28;20036;-48
2024/01/30 08:38:41;;;;;;;21.52;14.18;;;6.60;99.90;;;;;;5072451;28;20389;-49
2024/01/30 08:41:07;;;;;;;21.88;13.93;;;6.80;99.90;;;;;;5066897;28;20044;-46
2024/01/30 08:43:33;;;;;;;22.15;14.27;;;6.70;99.90;;;;;;5072343;28;20063;-48
2024/01/30 08:46:00;;;;;;;22.85;13.73;;;8.30;99.90;;;;;;5072279;28;20133;-50
2024/01/30 08:48:26;;;;;;;20.88;12.68;;;6.70;99.90;;;;;;5071991;28;20154;-49
2024/01/30 08:50:52;;;;;;;21.70;13.43;;;7.20;99.90;;;;;;5072432;28;20075;-51
2024/01/30 08:53:18;;;;;;;21.52;13.45;;;8.30;99.90;;;;;;5071929;28;20562;-49
2024/01/30 08:55:44;;;;;;;22.08;13.20;;;8.30;99.90;;;;;;5072356;28;20045;-49
2024/01/30 08:58:10;;;;;;;19.52;12.73;;;8.40;99.90;;;;;;5071915;28;20063;-49
2024/01/30 09:00:35;;;;;;;21.20;14.15;;;7.20;99.90;;;;;;5072192;28;20116;-46
2024/01/30 09:03:01;;;;;;;20.52;14.00;;;8.20;99.90;;;;;;5072859;28;20047;-51
2024/01/30 09:05:26;;;;;;;21.67;13.13;;;7.40;99.90;;;;;;5072949;28;20072;-50
2024/01/30 09:07:52;;;;;;;21.20;13.18;;;8.60;99.90;;;;;;5073190;28;20472;-46
2024/01/30 09:10:19;;;;;;;20.00;13.43;;;7.70;99.90;;;;;;5072889;28;20044;-49
2024/01/30 09:12:44;;;;;;;20.13;12.60;;;7.00;99.90;;;;;;5073094;28;20044;-48
2024/01/30 09:15:10;;;;;;;19.23;13.15;;;7.30;99.90;;;;;;5072792;28;20049;-46
2024/01/30 09:17:36;;;;;;;24.10;13.43;;;7.10;99.90;;;;;;5072437;28;20047;-49
2024/01/30 09:20:01;;;;;;;22.00;13.35;;;8.40;99.90;;;;;;5071557;28;20040;-48
2024/01/30 09:22:27;;;;;;;23.60;14.85;;;7.30;99.90;;;;;;5072610;28;20046;-46
2024/01/30 09:24:53;;;;;;;20.33;13.43;;;7.70;99.90;;;;;;5072586;28;20046;-47
2024/01/30 09:27:18;;;;;;;20.58;14.10;;;8.70;99.90;;;;;;5071144;28;20048;-49
2024/01/30 09:29:44;;;;;;;22.10;13.98;;;7.70;99.90;;;;;;5072558;28;20043;-47
2024/01/30 09:32:10;;;;;;;24.05;14.30;;;9.30;99.90;;;;;;5072757;28;20392;-46
2024/01/30 09:34:35;;;;;;;23.63;14.55;;;9.10;99.90;;;;;;5072569;28;20463;-47
2024/01/30 09:37:02;;;;;;;21.83;13.98;;;9.20;99.90;;;;;;5071122;28;20040;-47
2024/01/30 09:39:28;;;;;;;23.50;13.57;;;9.50;99.90;;;;;;5072333;28;20036;-47
2024/01/30 09:42:11;;;;;;;21.85;13.25;;;9.20;99.90;;;;;;5071110;28;20051;-46
2024/01/30 09:44:38;;;;;;;27.45;13.82;;;8.40;99.90;;;;;;5072312;28;20093;-46
2024/01/30 09:47:05;;;;;;;21.05;13.75;;;8.90;99.90;;;;;;5072382;28;20079;-49
2024/01/30 09:49:35;;;;;;;21.00;13.18;;;8.30;99.90;;;;;;5071864;28;20049;-48
2024/01/30 09:52:05;;;;;;;23.63;13.60;;;8.10;99.90;;;;;;5072171;28;20440;-47
2024/01/30 09:54:31;;;;;;;22.90;13.68;;;9.00;99.90;;;;;;5071942;28;20044;-46
2024/01/30 09:57:00;;;;;;;23.05;14.50;;;9.50;99.90;;;;;;5071871;28;20053;-49
2024/01/30 09:59:26;;;;;;;26.85;12.95;;;8.30;99.90;;;;;;5071456;28;20547;-48
2024/01/30 10:01:52;;;;;;;22.85;13.20;;;9.70;99.90;;;;;;5072282;28;20054;-48
2024/01/30 10:04:18;;;;;;;24.50;14.13;;;9.60;99.90;;;;;;5072080;28;20036;-46
2024/01/30 10:06:43;;;;;;;23.23;14.10;;;8.20;99.90;;;;;;5072015;28;20047;-48
2024/01/30 10:09:09;;;;;;;26.27;13.57;;;8.20;99.90;;;;;;5072051;28;20087;-46
2024/01/30 10:11:38;;;;;;;23.13;14.00;;;8.80;99.90;;;;;;5071999;28;20045;-50
2024/01/30 10:14:03;;;;;;;22.40;14.23;;;8.30;99.90;;;;;;5072028;28;20115;-47
2024/01/30 10:16:29;;;;;;;23.13;13.07;;;8.10;99.90;;;;;;5070548;28;20052;-46
2024/01/30 10:18:55;;;;;;;21.38;12.93;;;9.80;99.90;;;;;;5072047;28;20039;-49
2024/01/30 10:21:21;;;;;;;25.23;13.27;;;8.90;99.90;;;;;;5071782;28;20500;-45
2024/01/30 10:23:47;;;;;;;23.38;13.93;;;8.40;99.90;;;;;;5071772;28;20051;-46
2024/01/30 10:26:13;;;;;;;20.80;12.98;;;8.80;99.90;;;;;;5072014;28;20033;-50
2024/01/30 10:28:39;;;;;;;22.95;14.50;;;9.70;99.90;;;;;;5071774;28;20469;-49
2024/01/30 10:31:05;;;;;;;21.58;14.13;;;8.60;99.90;;;;;;5072033;28;20040;-47
2024/01/30 10:33:31;;;;;;;23.23;13.93;;;9.70;99.90;;;;;;5070611;28;20036;-47
2024/01/30 10:36:06;;;;;;;20.38;12.75;;;8.20;99.90;;;;;;5071690;28;20044;-48
2024/01/30 10:38:33;;;;;;;21.98;13.30;;;9.70;99.90;;;;;;5071661;28;20493;-47
2024/01/30 10:41:00;;;;;;;23.92;15.35;;;8.70;99.90;;;;;;5071662;28;20039;-45
2024/01/30 10:43:35;;;;;;;25.67;13.65;;;9.90;99.90;;;;;;5071951;28;20388;-46
2024/01/30 10:46:18;;;;;;;22.65;12.93;;;9.90;99.90;;;;;;5071811;28;20044;-47
2024/01/30 10:48:50;;;;;;;24.50;13.60;;;9.90;99.90;;;;;;5071647;28;20556;-45
2024/01/30 10:51:16;;;;;;;;;;;9.00;99.90;;;;;;5070646;28;20053;-47
2024/01/30 10:53:46;;;;;;;19.17;11.40;;;9.80;99.90;;;;;;5071870;28;19916;-47
2024/01/30 10:56:12;;;;;;;20.05;11.57;;;9.90;99.90;;;;;;5070913;28;20450;-50
2024/01/30 10:58:38;;;;;;;17.80;10.73;;;8.60;99.90;;;;;;5060584;28;20461;-48
2024/01/30 11:01:06;;;;;;;21.02;9.63;;;9.40;99.90;;;;;;5062196;28;20040;-49
2024/01/30 11:03:36;;;;;;;22.65;9.70;;;9.70;99.90;;;;;;5059752;28;20052;-53
2024/01/30 11:06:02;;;;;;;18.75;9.75;;;8.80;99.90;;;;;;5051003;28;20037;-49
2024/01/30 11:08:28;;;;;;;19.20;9.82;;;9.00;99.90;;;;;;5049444;28;20095;-57
2024/01/30 11:10:58;;;;;;;23.05;10.75;;;8.90;99.90;;;;;;5055642;28;20044;-48
2024/01/30 11:13:28;;;;;;;19.60;10.70;;;9.70;99.90;;;;;;5074863;28;20059;-46
2024/01/30 11:15:54;;;;;;;21.48;10.50;;;9.50;99.90;;;;;;5067587;28;20055;-49
2024/01/30 11:18:24;;;;;;;18.38;9.77;;;10.00;99.90;;;;;;5065327;28;20033;-46
2024/01/30 11:20:50;;;;;;;15.85;8.73;;;10.00;99.90;;;;;;5063398;28;20098;-46
2024/01/30 11:23:15;;;;;;;18.77;9.15;;;9.00;99.90;;;;;;5063705;28;20032;-48
2024/01/30 11:25:44;;;;;;;19.00;7.47;;;9.90;99.90;;;;;;5055125;28;20052;-48
2024/01/30 11:28:15;;;;;;;14.40;6.75;;;9.40;99.90;;;;;;5055006;28;20045;-45
2024/01/30 11:30:41;;;;;;;18.02;6.85;;;8.80;99.90;;;;;;5054701;28;20049;-46
2024/01/30 11:33:12;;;;;;;15.57;5.70;;;8.80;99.90;;;;;;5053427;28;20056;-46
2024/01/30 11:35:41;;;;;;;12.23;5.35;;;9.10;99.90;;;;;;5054838;28;20033;-47
2024/01/30 11:38:11;;;;;;;14.25;5.25;;;8.80;99.90;;;;;;5052845;28;20053;-46
2024/01/30 11:40:38;;;;;;;16.40;5.43;;;8.70;99.90;;;;;;5054285;28;20141;-51
2024/01/30 11:43:07;;;;;;;13.10;4.80;;;9.70;99.90;;;;;;5054425;28;20029;-49
2024/01/30 11:45:34;;;;;;;12.98;4.10;;;9.70;99.90;;;;;;5054392;28;20077;-49
2024/01/30 11:48:01;;;;;;;12.10;4.43;;;9.00;99.90;;;;;;5054156;28;20048;-49
2024/01/30 11:50:27;;;;;;;14.00;4.03;;;9.60;99.90;;;;;;5054201;28;20087;-46
2024/01/30 11:52:54;;;;;;;13.68;4.15;;;8.70;99.90;;;;;;5054060;28;20052;-50
2024/01/30 11:55:20;;;;;;;10.43;3.78;;;9.20;99.90;;;;;;5054023;28;20095;-47
2024/01/30 11:57:46;;;;;;;8.35;3.42;;;9.00;99.90;;;;;;5054024;28;20095;-46
2024/01/30 12:00:16;;;;;;;12.95;3.08;;;9.30;99.90;;;;;;5053953;28;20397;-45
2024/01/30 12:02:43;;;;;;;10.07;2.75;;;9.20;99.90;;;;;;5056416;28;20116;-46
2024/01/30 12:05:09;;;;;;;9.82;2.67;;;8.60;99.90;;;;;;5074026;28;20056;-46
2024/01/30 12:07:36;;;;;;;9.77;2.65;;;8.80;99.90;;;;;;5074242;28;20037;-47
2024/01/30 12:10:02;;;;;;;5.78;1.70;;;8.50;99.90;;;;;;5073842;28;20396;-48
2024/01/30 12:12:29;;;;;;;9.32;2.58;;;8.50;99.90;;;;;;5073821;28;20036;-46
2024/01/30 12:14:56;;;;;;;8.80;2.00;;;8.70;99.90;;;;;;5074001;28;20044;-46
2024/01/30 12:17:31;;;;;;;8.80;1.95;;;8.40;99.90;;;;;;5073575;28;20044;-50
2024/01/30 12:20:04;;;;;;;7.60;2.60;;;8.90;99.90;;;;;;5073694;28;20040;-48
2024/01/30 12:22:30;;;;;;;5.88;2.30;;;8.50;99.90;;;;;;5071431;28;20044;-46
2024/01/30 12:24:56;;;;;;;7.13;3.10;;;9.10;99.90;;;;;;5074032;28;20120;-46
2024/01/30 12:27:23;;;;;;;7.22;2.47;;;8.90;99.90;;;;;;5073809;28;20043;-46
2024/01/30 12:29:55;;;;;;;7.45;2.05;;;9.10;99.90;;;;;;5073655;28;20072;-46
2024/01/30 12:32:23;;;;;;;7.28;1.90;;;9.20;99.90;;;;;;5073576;28;20033;-47
2024/01/30 12:34:48;;;;;;;6.13;1.90;;;9.20;99.90;;;;;;5073226;28;20040;-45